Have a Safe July 4th! 

Flight Track Log - Related Links

Times and Time Zones

All times are in EDT time to prevent confusion due to time zone crossing. See the EJA388 flight status page for this flight to view local times or setup timezone preferences in your user account.

Time Position Orientation Groundspeed Altitude Reporting Facility
EDT Latitude Longitude Course Direction KTS MPH feet Rate Location/Type
Fri 03:51:13 PM 34.2122 -119.1106 262° West 148 170 1,000  Level Los Angeles Center
Fri 03:51:49 PM 34.2072 -119.1564 262° West 215 247 2,900 3,120 Climbing Los Angeles Center
Fri 03:53:18 PM 34.1975 -119.2642 264° West 292 336 7,500 2,228 Climbing Los Angeles Center
Fri 04:00:10 PM 34.1780 -119.1930 97° East 100 115 21,500 1,884 Climbing FlightAware ADS-B
Fri 04:00:47 PM 34.2330 -119.1240 46° Northeast 100 115 21,600 85 Climbing FlightAware ADS-B
Fri 04:01:21 PM 34.2400 -119.1110 57° Northeast 100 115 21,600  Level FlightAware ADS-B
Fri 04:02:07 PM 34.2510 -119.0940 52° Northeast 100 115 21,600  Level FlightAware ADS-B
Fri 04:02:41 PM 34.2590 -119.0810 53° Northeast 100 115 21,600  Level FlightAware ADS-B
Fri 04:03:18 PM 34.2680 -119.0660 54° Northeast 100 115 21,600 5,800 Level FlightAware ADS-B
Fri 04:03:41 PM 34.3900 -118.6540 70° East 100 115 27,400 5,155 Climbing FlightAware ADS-B
Fri 04:04:29 PM 34.4200 -118.5540 70° East 475 547 27,700 220 Climbing FlightAware ADS-B
Fri 04:05:03 PM 34.4420 -118.4810 70° East 475 547 27,700  Level FlightAware ADS-B
Fri 04:05:41 PM 34.4660 -118.4010 70° East 475 547 27,700  Level FlightAware ADS-B
Fri 04:06:18 PM 34.4900 -118.3220 70° East 475 547 27,700  Level FlightAware ADS-B
Fri 04:06:54 PM 34.5130 -118.2450 70° East 475 547 27,700  Level FlightAware ADS-B
Fri 04:07:29 PM 34.5350 -118.1710 70° East 475 547 27,700 3,698 Level FlightAware ADS-B
Fri 04:08:20 PM 34.5930 -117.9390 73° East 475 547 33,000 3,533 Climbing FlightAware ADS-B
Fri 04:08:59 PM 34.6170 -117.8550 71° East 475 547 33,000  Level FlightAware ADS-B
Fri 04:09:51 PM 34.6550 -117.7140 72° East 475 547 33,000  Level FlightAware ADS-B
Fri 04:10:27 PM 34.6770 -117.6370 71° East 475 547 33,000  Level FlightAware ADS-B
Fri 04:11:04 PM 34.7000 -117.5570 71° East 475 547 33,000  Level FlightAware ADS-B
Fri 04:11:40 PM 34.7210 -117.4800 72° East 475 547 33,000  Level FlightAware ADS-B
Fri 04:12:17 PM 34.7440 -117.4010 70° East 475 547 33,000  Level FlightAware ADS-B
Fri 04:12:53 PM 34.7660 -117.3230 71° East 475 547 33,000  Level FlightAware ADS-B
Fri 04:13:29 PM 34.7880 -117.2460 71° East 475 547 33,000  Level FlightAware ADS-B
Fri 04:14:15 PM 34.8160 -117.1470 71° East 475 547 33,000  Level FlightAware ADS-B
Fri 04:14:51 PM 34.8380 -117.0690 71° East 475 547 33,000  Level FlightAware ADS-B
Fri 04:15:29 PM 34.8610 -116.9880 71° East 475 547 33,000  Level FlightAware ADS-B
Fri 04:16:05 PM 34.8830 -116.9100 71° East 475 547 33,000  Level FlightAware ADS-B
Fri 04:16:41 PM 34.9040 -116.8330 72° East 475 547 33,000  Level FlightAware ADS-B
Fri 04:17:17 PM 34.9260 -116.7550 71° East 475 547 33,000  Level FlightAware ADS-B
Fri 04:17:53 PM 34.9480 -116.6770 71° East 475 547 33,000  Level FlightAware ADS-B
Fri 04:18:29 PM 34.9700 -116.6000 71° East 475 547 33,000  Level FlightAware ADS-B
Fri 04:19:07 PM 34.9930 -116.5180 71° East 475 547 33,000 5,854 Level FlightAware ADS-B
Fri 04:19:51 PM 35.3500 -116.2675 71° East 460 529 41,000 4,528 Climbing Salt Lake Center
Fri 04:20:53 PM 35.4350 -116.1419 50° Northeast 472 543 41,000  Level Salt Lake Center
Fri 04:21:55 PM 35.5189 -116.0133 51° Northeast 480 552 41,000  Level Salt Lake Center
Fri 04:22:57 PM 35.6019 -115.8875 51° Northeast 478 550 41,000  Level Salt Lake Center
Fri 04:23:59 PM 35.7017 -115.7369 51° Northeast 475 547 41,000  Level Salt Lake Center
Fri 04:25:00 PM 35.7847 -115.6108 51° Northeast 476 548 41,000  Level Salt Lake Center
Fri 04:26:02 PM 35.8675 -115.4839 51° Northeast 478 550 41,000  Level Salt Lake Center
Fri 04:27:04 PM 35.9506 -115.3578 51° Northeast 479 551 41,000  Level Salt Lake Center
Fri 04:28:06 PM 36.0336 -115.2303 51° Northeast 480 552 41,000  Level Salt Lake Center
Fri 04:29:08 PM 36.1392 -115.0856 48° Northeast 477 549 41,000  Level Salt Lake Center
Fri 04:30:10 PM 36.2303 -114.9706 45° Northeast 474 545 41,000  Level Salt Lake Center
Fri 04:31:12 PM 36.3208 -114.8533 46° Northeast 474 545 41,000  Level Salt Lake Center
Fri 04:32:13 PM 36.4122 -114.7375 46° Northeast 473 544 41,000  Level Salt Lake Center
Fri 04:33:15 PM 36.5019 -114.6200 46° Northeast 471 542 41,000  Level Salt Lake Center
Fri 04:34:17 PM 36.5908 -114.5014 47° Northeast 471 542 41,000  Level Salt Lake Center
Fri 04:35:19 PM 36.7000 -114.3589 46° Northeast 474 545 41,000  Level Salt Lake Center
Fri 04:36:21 PM 36.7856 -114.2311 50° Northeast 480 552 41,000  Level Salt Lake Center
Fri 04:37:23 PM 36.8481 -114.0975 60° Northeast 488 562 41,000  Level Salt Lake Center
Fri 04:38:25 PM 36.9203 -113.9511 58° Northeast 495 570 41,000  Level Salt Lake Center
Fri 04:39:26 PM 37.0039 -113.7739 59° Northeast 495 570 41,000  Level Salt Lake Center
Fri 04:40:28 PM 37.0733 -113.6247 60° Northeast 497 572 41,000  Level Salt Lake Center
Fri 04:41:30 PM 37.1442 -113.4756 59° Northeast 499 574 41,000  Level Salt Lake Center
Fri 04:42:32 PM 37.2161 -113.3261 59° Northeast 503 579 41,000  Level Salt Lake Center
Fri 04:43:34 PM 37.2861 -113.1733 60° Northeast 505 581 41,000  Level Salt Lake Center
Fri 04:44:36 PM 37.3564 -113.0217 60° Northeast 507 583 41,000  Level Salt Lake Center
Fri 04:45:38 PM 37.4406 -112.8392 60° Northeast 510 587 41,000  Level Salt Lake Center
Fri 04:46:40 PM 37.5111 -112.6894 59° Northeast 512 589 41,000 98 Level Salt Lake Center
Fri 04:47:41 PM 37.5819 -112.5372 60° Northeast 512 589 41,200 396 Climbing Salt Lake Center
Fri 04:48:11 PM 37.6236 -112.4458 60° Northeast 509 586 41,600 581 Climbing Los Angeles Center
Fri 04:48:43 PM 37.6511 -112.3858 60° Northeast 506 582 41,800 574 Climbing Salt Lake Center
Fri 04:49:45 PM 37.7408 -112.2142 57° Northeast 493 567 42,500 581 Climbing Salt Lake Center
Fri 04:50:47 PM 37.8194 -112.0797 53° Northeast 480 552 43,000 339 Climbing Salt Lake Center
Fri 04:51:49 PM 37.8969 -111.9442 54° Northeast 478 550 43,200 339 Climbing Salt Lake Center
Fri 04:52:51 PM 37.9736 -111.8081 54° Northeast 477 549 43,700 484 Climbing Salt Lake Center
Fri 04:53:53 PM 38.0508 -111.6753 54° Northeast 471 542 44,200 484 Climbing Salt Lake Center
Fri 04:54:55 PM 38.1272 -111.5433 54° Northeast 467 537 44,700 387 Climbing Salt Lake Center
Fri 04:55:57 PM 38.2147 -111.3872 54° Northeast 455 524 45,000 145 Climbing Salt Lake Center
Fri 04:56:59 PM 38.2892 -111.2564 54° Northeast 457 526 45,000  Level Salt Lake Center
Fri 04:58:00 PM 38.3647 -111.1233 54° Northeast 463 533 45,000  Level Salt Lake Center
Fri 04:59:02 PM 38.4392 -110.9872 55° Northeast 468 539 45,000  Level Salt Lake Center
Fri 05:00:05 PM 38.5256 -110.8322 55° Northeast 476 548 45,000  Level Salt Lake Center
Fri 05:01:07 PM 38.5994 -110.7008 54° Northeast 476 548 45,000  Level Salt Lake Center
Fri 05:02:12 PM 38.6833 -110.5439 56° Northeast 478 550 45,000  Level Denver Center
Fri 05:03:14 PM 38.7569 -110.4111 55° Northeast 478 550 45,000  Level Denver Center
Fri 05:04:16 PM 38.8408 -110.2508 56° Northeast 483 556 45,000  Level Denver Center
Fri 05:05:14 PM 38.9181 -110.1186 53° Northeast 484 557 45,000  Level Salt Lake Center
Fri 05:06:16 PM 38.9914 -109.9819 55° Northeast 484 557 45,000  Level Salt Lake Center
Fri 05:07:18 PM 39.0772 -109.8236 55° Northeast 483 556 45,000  Level Salt Lake Center
Fri 05:08:20 PM 39.1508 -109.6861 55° Northeast 486 559 45,000  Level Salt Lake Center
Fri 05:09:22 PM 39.2364 -109.5247 56° Northeast 488 562 45,000  Level Salt Lake Center
Fri 05:10:24 PM 39.3097 -109.3875 55° Northeast 487 560 45,000  Level Salt Lake Center
Fri 05:11:26 PM 39.3953 -109.2253 56° Northeast 489 563 45,000  Level Salt Lake Center
Fri 05:12:28 PM 39.4681 -109.0864 56° Northeast 488 562 45,000  Level Salt Lake Center
Fri 05:13:30 PM 39.5522 -108.9244 56° Northeast 486 559 45,000  Level Salt Lake Center
Fri 05:14:32 PM 39.6289 -108.7817 55° Northeast 488 562 45,000  Level Salt Lake Center
Fri 05:15:33 PM 39.7078 -108.6292 56° Northeast 498 573 45,000  Level Salt Lake Center
Fri 05:16:41 PM 39.7914 -108.4656 56° Northeast 485 558 45,000  Level Denver Center
Fri 05:17:43 PM 39.8756 -108.3022 56° Northeast 487 560 45,000  Level Denver Center
Fri 05:18:46 PM 39.9464 -108.1619 57° Northeast 483 556 45,000  Level Denver Center
Fri 05:19:48 PM 40.0183 -108.0208 56° Northeast 486 559 45,000  Level Denver Center
Fri 05:20:50 PM 40.0856 -107.8433 64° Northeast 490 564 45,000  Level Denver Center
Fri 05:21:52 PM 40.1231 -107.6833 73° East 484 557 45,000  Level Denver Center
Fri 05:22:54 PM 40.1669 -107.4961 73° East 482 555 45,000  Level Denver Center
Fri 05:23:56 PM 40.2025 -107.3353 74° East 482 555 45,000  Level Denver Center
Fri 05:24:58 PM 40.2453 -107.1472 73° East 483 556 45,000  Level Denver Center
Fri 05:26:00 PM 40.2819 -106.9861 73° East 483 556 45,000  Level Denver Center
Fri 05:27:02 PM 40.3211 -106.8125 73° East 481 554 45,000  Level Denver Center
Fri 05:28:04 PM 40.3583 -106.6433 74° East 480 552 45,000  Level Denver Center
Fri 05:29:06 PM 40.4008 -106.4472 74° East 483 556 45,000  Level Denver Center
Fri 05:30:08 PM 40.4364 -106.2861 74° East 482 555 45,000  Level Denver Center
Fri 05:31:10 PM 40.4739 -106.1158 74° East 483 556 45,000  Level Denver Center
Fri 05:32:13 PM 40.5108 -105.9450 74° East 487 560 45,000  Level Denver Center
Fri 05:33:15 PM 40.5453 -105.7714 75° East 489 563 45,000  Level Denver Center
Fri 05:34:17 PM 40.5897 -105.5631 74° East 493 567 45,000  Level Denver Center
Fri 05:35:19 PM 40.6258 -105.3872 75° East 495 570 45,000  Level Denver Center
Fri 05:36:21 PM 40.6628 -105.2117 74° East 497 572 45,000  Level Denver Center
Fri 05:37:23 PM 40.6992 -105.0350 75° East 498 573 45,000  Level Denver Center
Fri 05:38:25 PM 40.7353 -104.8578 75° East 500 575 45,000  Level Denver Center
Fri 05:39:27 PM 40.7697 -104.6808 76° East 497 572 45,000  Level Denver Center
Fri 05:40:29 PM 40.8133 -104.4656 75° East 505 581 45,000  Level Denver Center
Fri 05:41:31 PM 40.8481 -104.2875 75° East 502 578 45,000  Level Denver Center
Fri 05:42:33 PM 40.8828 -104.1089 76° East 503 579 45,000  Level Denver Center
Fri 05:43:36 PM 40.9178 -103.9308 75° East 500 575 45,000  Level Denver Center
Fri 05:44:38 PM 40.9522 -103.7533 76° East 500 575 45,000  Level Denver Center
Fri 05:45:40 PM 40.9908 -103.5419 76° East 505 581 45,000  Level Denver Center
Fri 05:46:42 PM 41.0242 -103.3689 76° East 507 583 45,000  Level Denver Center
Fri 05:47:44 PM 41.0564 -103.1944 76° East 510 587 45,000  Level Denver Center
Fri 05:48:46 PM 41.0931 -102.9892 77° East 512 589 45,000  Level Denver Center
Fri 05:49:48 PM 41.1092 -102.8161 83° East 503 579 45,000  Level Denver Center
Fri 05:50:50 PM 41.1256 -102.6117 84° East 501 577 45,000  Level Denver Center
Fri 05:51:52 PM 41.1394 -102.4356 84° East 500 575 45,000  Level Denver Center
Fri 05:52:54 PM 41.1558 -102.2311 84° East 499 574 45,000  Level Denver Center
Fri 05:53:56 PM 41.1692 -102.0567 84° East 497 572 45,000  Level Denver Center
Fri 05:54:58 PM 41.1839 -101.8544 84° East 493 567 45,000  Level Denver Center
Fri 05:56:00 PM 41.1953 -101.6831 85° East 489 563 45,000  Level Denver Center
Fri 05:57:02 PM 41.2086 -101.4850 85° East 483 556 45,000  Level Denver Center
Fri 05:58:05 PM 41.2197 -101.3144 85° East 483 556 45,000  Level Denver Center
Fri 05:59:07 PM 41.2319 -101.1125 85° East 489 563 45,000  Level Denver Center
Fri 06:00:09 PM 41.2439 -100.9408 85° East 487 560 45,000  Level Denver Center
Fri 06:01:11 PM 41.2561 -100.7383 85° East 488 562 45,000  Level Denver Center
Fri 06:02:13 PM 41.2667 -100.5642 85° East 490 564 45,000  Level Denver Center
Fri 06:03:15 PM 41.2775 -100.3928 85° East 486 559 45,000  Level Denver Center
Fri 06:04:17 PM 41.2886 -100.1908 86° East 487 560 45,000  Level Denver Center
Fri 06:05:19 PM 41.2978 -100.0197 86° East 485 558 45,000  Level Denver Center
Fri 06:06:21 PM 41.3086 -99.8206 86° East 484 557 45,000  Level Denver Center
Fri 06:07:23 PM 41.3181 -99.6492 86° East 483 556 45,000  Level Denver Center
Fri 06:08:25 PM 41.3200 -99.4517 89° East 479 551 45,000  Level Denver Center
Fri 06:09:27 PM 41.3078 -99.2936 96° East 477 549 45,000  Level Denver Center
Fri 06:10:29 PM 41.2958 -99.1203 95° East 472 543 45,000  Level Denver Center
Fri 06:11:31 PM 41.2881 -98.9236 93° East 474 545 45,000  Level Denver Center
Fri 06:12:34 PM 41.2794 -98.7297 93° East 473 544 45,000  Level Denver Center
Fri 06:13:36 PM 41.2697 -98.5514 94° East 473 544 45,000  Level Denver Center
Fri 06:14:38 PM 41.2594 -98.3792 94° East 467 537 45,000  Level Denver Center
Fri 06:16:02 PM 41.2775 -98.1386 84° East 472 543 45,000  Level Minneapolis Center
Fri 06:17:04 PM 41.3097 -97.9669 76° East 477 549 45,000  Level Minneapolis Center
Fri 06:18:06 PM 41.3381 -97.8119 76° East 477 549 45,000  Level Minneapolis Center
Fri 06:19:08 PM 41.3756 -97.6050 76° East 478 550 45,000  Level Minneapolis Center
Fri 06:20:10 PM 41.4075 -97.4322 76° East 479 551 45,000  Level Minneapolis Center
Fri 06:21:12 PM 41.4381 -97.2589 77° East 480 552 45,000  Level Minneapolis Center
Fri 06:22:14 PM 41.4683 -97.0844 77° East 482 555 45,000  Level Minneapolis Center
Fri 06:23:16 PM 41.4997 -96.9117 76° East 480 552 45,000  Level Minneapolis Center
Fri 06:24:18 PM 41.5308 -96.7378 77° East 481 554 45,000  Level Minneapolis Center
Fri 06:25:21 PM 41.5603 -96.5633 77° East 479 551 45,000  Level Minneapolis Center
Fri 06:26:23 PM 41.5964 -96.3481 77° East 481 554 45,000  Level Minneapolis Center
Fri 06:27:25 PM 41.6194 -96.1983 78° East 484 557 45,000  Level Minneapolis Center
Fri 06:28:27 PM 41.6550 -95.9972 77° East 481 554 45,000  Level Minneapolis Center
Fri 06:29:29 PM 41.6839 -95.8211 78° East 481 554 45,000  Level Minneapolis Center
Fri 06:30:31 PM 41.7128 -95.6444 78° East 482 555 45,000  Level Minneapolis Center
Fri 06:31:33 PM 41.7406 -95.4681 78° East 483 556 45,000  Level Minneapolis Center
Fri 06:32:35 PM 41.7689 -95.2931 78° East 481 554 45,000  Level Minneapolis Center
Fri 06:33:37 PM 41.7969 -95.1178 78° East 480 552 45,000  Level Minneapolis Center
Fri 06:34:39 PM 41.8297 -94.9086 78° East 478 550 45,000  Level Minneapolis Center
Fri 06:35:41 PM 41.8558 -94.7325 79° East 480 552 45,000  Level Minneapolis Center
Fri 06:36:43 PM 41.8833 -94.5564 78° East 482 555 45,000  Level Minneapolis Center
Fri 06:37:46 PM 41.9106 -94.3800 78° East 483 556 45,000  Level Minneapolis Center
Fri 06:38:48 PM 41.9375 -94.2044 78° East 482 555 45,000  Level Minneapolis Center
Fri 06:39:50 PM 41.9653 -94.0292 78° East 481 554 45,000  Level Minneapolis Center
Fri 06:40:52 PM 41.9925 -93.8272 80° East 482 555 45,000  Level Minneapolis Center
Fri 06:41:54 PM 42.0186 -93.6544 78° East 479 551 45,000  Level Minneapolis Center
Fri 06:42:56 PM 42.0428 -93.4792 79° East 480 552 45,000  Level Minneapolis Center
Fri 06:43:58 PM 42.0675 -93.3058 79° East 479 551 45,000  Level Minneapolis Center
Fri 06:45:00 PM 42.0967 -93.0975 79° East 477 549 45,000 -484 Level Minneapolis Center
Fri 06:46:02 PM 42.1203 -92.9228 80° East 481 554 44,000 -1,016 Descending Minneapolis Center
Fri 06:47:04 PM 42.1442 -92.7486 79° East 479 551 42,900 -1,086 Descending Minneapolis Center
Fri 06:47:47 PM 42.1631 -92.6078 80° East 480 552 42,100 -1,086 Descending Chicago Center
Fri 06:48:49 PM 42.1858 -92.4303 80° East 486 559 41,000 -1,065 Descending Chicago Center
Fri 06:49:51 PM 42.2097 -92.2536 80° East 485 558 39,900 -1,065 Descending Chicago Center
Fri 06:50:53 PM 42.2328 -92.0728 80° East 494 568 38,800 -1,161 Descending Chicago Center
Fri 06:51:55 PM 42.2611 -91.8514 80° East 505 581 37,500 -864 Descending Chicago Center
Fri 06:52:58 PM 42.2847 -91.6678 80° East 507 583 37,000 -240 Descending Chicago Center
Fri 06:54:00 PM 42.3072 -91.4869 80° East 500 575 37,000 -242 Level Chicago Center
Fri 06:55:02 PM 42.3292 -91.3072 81° East 495 570 36,500 -677 Descending Chicago Center
Fri 06:56:04 PM 42.3550 -91.0956 81° East 483 556 35,600 -823 Descending Chicago Center
Fri 06:57:06 PM 42.3772 -90.9114 81° East 496 571 34,800 -1,210 Descending Chicago Center
Fri 06:58:08 PM 42.4022 -90.7292 79° East 501 577 33,100 -2,238 Descending Chicago Center
Fri 06:59:12 PM 42.4853 -90.5592 56° Northeast 460 529 30,100 -2,667 Descending Chicago Center
Fri 07:00:14 PM 42.5861 -90.4539 38° Northeast 464 534 27,500 -2,177 Descending Chicago Center
Fri 07:01:16 PM 42.6869 -90.3583 35° Northeast 453 521 25,600 -1,597 Descending Chicago Center
Fri 07:02:18 PM 42.7872 -90.2653 34° Northeast 445 512 24,200 -1,790 Descending Chicago Center
Fri 07:03:20 PM 42.8864 -90.1236 46° Northeast 443 510 21,900 -2,323 Descending Chicago Center
Fri 07:04:22 PM 42.9308 -89.9814 67° East 419 482 19,400 -2,448 Descending Chicago Center
Fri 07:05:25 PM 42.9825 -89.8297 65° Northeast 409 471 16,800 -2,832 Descending Chicago Center
Fri 07:06:27 PM 43.0411 -89.7139 55° Northeast 387 445 13,500 -3,387 Descending Chicago Center
Fri 07:07:29 PM 43.1078 -89.6233 45° Northeast 348 400 9,800 -3,097 Descending Chicago Center
Fri 07:08:31 PM 43.1786 -89.5789 25° Northeast 306 352 7,100 -2,419 Descending Chicago Center
Fri 07:09:33 PM 43.2228 -89.5086 49° Northeast 272 313 4,800 -2,081 Descending Chicago Center
Fri 07:10:35 PM 43.2092 -89.4311 104° East 230 265 2,800 -1,548 Descending Chicago Center
Fri 07:11:37 PM 43.1756 -89.3786 131° Southeast 178 205 1,600 -823 Descending Chicago Center
Fri 07:12:39 PM 43.1544 -89.3511 136° Southeast 138 159 1,100 -484 Descending Chicago Center
Fri 07:14:00 PM 43.1333 -89.3333 North  Level FlightAware Approximate

Login

Don't have an account? Register now (free) for customized features, flight alerts, and more!